sensor_id;sensor_type;location;lat;lon;timestamp;temperature;humidity
73121;DHT22;61307;49.628;-1.624;2023-04-01T00:01:57;19.60;47.40
73121;DHT22;61307;49.628;-1.624;2023-04-01T00:04:24;19.60;47.40
73121;DHT22;61307;49.628;-1.624;2023-04-01T00:06:51;19.60;47.50
73121;DHT22;61307;49.628;-1.624;2023-04-01T00:09:18;19.50;47.40
73121;DHT22;61307;49.628;-1.624;2023-04-01T00:11:45;19.60;47.40
73121;DHT22;61307;49.628;-1.624;2023-04-01T00:14:12;19.60;47.50
73121;DHT22;61307;49.628;-1.624;2023-04-01T00:16:39;19.50;47.40
73121;DHT22;61307;49.628;-1.624;2023-04-01T00:19:08;19.50;47.40
73121;DHT22;61307;49.628;-1.624;2023-04-01T00:21:35;19.60;47.50
73121;DHT22;61307;49.628;-1.624;2023-04-01T00:24:02;19.50;47.50
73121;DHT22;61307;49.628;-1.624;2023-04-01T00:26:29;19.50;48.10
73121;DHT22;61307;49.628;-1.624;2023-04-01T00:28:56;19.50;47.40
73121;DHT22;61307;49.628;-1.624;2023-04-01T00:31:24;19.50;47.40
73121;DHT22;61307;49.628;-1.624;2023-04-01T00:33:51;19.50;47.40
73121;DHT22;61307;49.628;-1.624;2023-04-01T00:36:21;19.50;47.50
73121;DHT22;61307;49.628;-1.624;2023-04-01T00:38:49;19.50;47.50
73121;DHT22;61307;49.628;-1.624;2023-04-01T00:41:17;19.50;47.50
73121;DHT22;61307;49.628;-1.624;2023-04-01T00:43:47;19.50;47.50
73121;DHT22;61307;49.628;-1.624;2023-04-01T00:46:14;19.50;47.50
73121;DHT22;61307;49.628;-1.624;2023-04-01T00:48:43;19.50;47.50
73121;DHT22;61307;49.628;-1.624;2023-04-01T00:51:14;19.50;47.60
73121;DHT22;61307;49.628;-1.624;2023-04-01T00:53:47;19.50;47.60
73121;DHT22;61307;49.628;-1.624;2023-04-01T00:56:17;19.40;47.50
73121;DHT22;61307;49.628;-1.624;2023-04-01T00:58:48;19.40;47.50
73121;DHT22;61307;49.628;-1.624;2023-04-01T01:01:17;19.40;47.50
73121;DHT22;61307;49.628;-1.624;2023-04-01T01:03:45;19.40;47.50
73121;DHT22;61307;49.628;-1.624;2023-04-01T01:06:24;19.40;47.50
73121;DHT22;61307;49.628;-1.624;2023-04-01T01:09:11;19.40;47.60
73121;DHT22;61307;49.628;-1.624;2023-04-01T01:11:43;19.50;47.70
73121;DHT22;61307;49.628;-1.624;2023-04-01T01:14:28;19.40;47.60
73121;DHT22;61307;49.628;-1.624;2023-04-01T01:17:04;19.40;47.50
73121;DHT22;61307;49.628;-1.624;2023-04-01T01:19:58;19.40;47.50
73121;DHT22;61307;49.628;-1.624;2023-04-01T01:22:52;19.40;47.60
73121;DHT22;61307;49.628;-1.624;2023-04-01T01:25:31;19.40;47.60
73121;DHT22;61307;49.628;-1.624;2023-04-01T01:28:14;19.40;47.60
73121;DHT22;61307;49.628;-1.624;2023-04-01T01:30:51;19.40;48.20
73121;DHT22;61307;49.628;-1.624;2023-04-01T01:33:48;19.40;47.60
73121;DHT22;61307;49.628;-1.624;2023-04-01T01:36:21;19.30;47.50
73121;DHT22;61307;49.628;-1.624;2023-04-01T01:38:50;19.30;47.50
73121;DHT22;61307;49.628;-1.624;2023-04-01T01:41:18;19.30;47.50
73121;DHT22;61307;49.628;-1.624;2023-04-01T01:43:49;19.40;47.60
73121;DHT22;61307;49.628;-1.624;2023-04-01T01:46:19;19.40;47.60
73121;DHT22;61307;49.628;-1.624;2023-04-01T01:48:48;19.40;47.70
73121;DHT22;61307;49.628;-1.624;2023-04-01T01:51:17;19.40;47.70
73121;DHT22;61307;49.628;-1.624;2023-04-01T01:53:46;19.40;47.70
73121;DHT22;61307;49.628;-1.624;2023-04-01T01:56:13;19.30;47.60
73121;DHT22;61307;49.628;-1.624;2023-04-01T01:58:42;19.40;47.70
73121;DHT22;61307;49.628;-1.624;2023-04-01T02:01:13;19.40;47.60
73121;DHT22;61307;49.628;-1.624;2023-04-01T02:03:41;19.40;47.70
73121;DHT22;61307;49.628;-1.624;2023-04-01T02:06:11;19.30;47.60
73121;DHT22;61307;49.628;-1.624;2023-04-01T02:08:42;19.30;47.60
73121;DHT22;61307;49.628;-1.624;2023-04-01T02:11:13;19.30;47.60
73121;DHT22;61307;49.628;-1.624;2023-04-01T02:13:45;19.30;47.70
73121;DHT22;61307;49.628;-1.624;2023-04-01T02:16:18;19.30;47.70
73121;DHT22;61307;49.628;-1.624;2023-04-01T02:18:48;19.30;47.60
73121;DHT22;61307;49.628;-1.624;2023-04-01T02:21:17;19.30;47.70
73121;DHT22;61307;49.628;-1.624;2023-04-01T02:23:47;19.30;47.70
73121;DHT22;61307;49.628;-1.624;2023-04-01T02:26:16;19.30;47.70
73121;DHT22;61307;49.628;-1.624;2023-04-01T02:28:45;19.30;47.70
73121;DHT22;61307;49.628;-1.624;2023-04-01T02:31:14;19.30;47.70
73121;DHT22;61307;49.628;-1.624;2023-04-01T02:33:41;19.30;47.70
73121;DHT22;61307;49.628;-1.624;2023-04-01T02:36:12;19.30;47.70
73121;DHT22;61307;49.628;-1.624;2023-04-01T02:38:39;19.30;47.70
73121;DHT22;61307;49.628;-1.624;2023-04-01T02:41:06;19.30;47.70
73121;DHT22;61307;49.628;-1.624;2023-04-01T02:43:35;19.30;47.70
73121;DHT22;61307;49.628;-1.624;2023-04-01T02:46:02;19.30;47.70
73121;DHT22;61307;49.628;-1.624;2023-04-01T02:48:29;19.30;47.80
73121;DHT22;61307;49.628;-1.624;2023-04-01T02:50:57;19.20;47.70
73121;DHT22;61307;49.628;-1.624;2023-04-01T02:53:24;19.30;47.70
73121;DHT22;61307;49.628;-1.624;2023-04-01T02:55:51;19.20;47.70
73121;DHT22;61307;49.628;-1.624;2023-04-01T02:58:18;19.20;47.70
73121;DHT22;61307;49.628;-1.624;2023-04-01T03:00:47;19.30;47.70
73121;DHT22;61307;49.628;-1.624;2023-04-01T03:03:14;19.30;47.80
73121;DHT22;61307;49.628;-1.624;2023-04-01T03:05:41;19.20;47.70
73121;DHT22;61307;49.628;-1.624;2023-04-01T03:08:08;19.20;47.70
73121;DHT22;61307;49.628;-1.624;2023-04-01T03:10:35;19.20;47.70
73121;DHT22;61307;49.628;-1.624;2023-04-01T03:13:02;19.20;47.70
73121;DHT22;61307;49.628;-1.624;2023-04-01T03:15:30;19.20;47.80
73121;DHT22;61307;49.628;-1.624;2023-04-01T03:17:58;19.20;47.80
73121;DHT22;61307;49.628;-1.624;2023-04-01T03:20:25;19.20;47.80
73121;DHT22;61307;49.628;-1.624;2023-04-01T03:22:52;19.20;47.80
73121;DHT22;61307;49.628;-1.624;2023-04-01T03:25:20;19.20;47.80
73121;DHT22;61307;49.628;-1.624;2023-04-01T03:27:47;19.20;47.80
73121;DHT22;61307;49.628;-1.624;2023-04-01T03:30:14;19.20;47.80
73121;DHT22;61307;49.628;-1.624;2023-04-01T03:32:41;19.20;47.80
73121;DHT22;61307;49.628;-1.624;2023-04-01T03:35:10;19.20;47.70
73121;DHT22;61307;49.628;-1.624;2023-04-01T03:37:37;19.20;47.80
73121;DHT22;61307;49.628;-1.624;2023-04-01T03:40:05;19.20;47.90
73121;DHT22;61307;49.628;-1.624;2023-04-01T03:42:32;19.20;47.80
73121;DHT22;61307;49.628;-1.624;2023-04-01T03:44:59;19.20;47.80
73121;DHT22;61307;49.628;-1.624;2023-04-01T03:47:26;19.20;47.80
73121;DHT22;61307;49.628;-1.624;2023-04-01T03:49:53;19.20;47.80
73121;DHT22;61307;49.628;-1.624;2023-04-01T03:52:22;19.20;47.80
73121;DHT22;61307;49.628;-1.624;2023-04-01T03:54:49;19.20;47.80
73121;DHT22;61307;49.628;-1.624;2023-04-01T03:57:16;19.20;47.90
73121;DHT22;61307;49.628;-1.624;2023-04-01T03:59:43;19.20;47.90
73121;DHT22;61307;49.628;-1.624;2023-04-01T04:02:10;19.20;47.80
73121;DHT22;61307;49.628;-1.624;2023-04-01T04:04:37;19.20;47.90
73121;DHT22;61307;49.628;-1.624;2023-04-01T04:07:04;19.20;47.80
73121;DHT22;61307;49.628;-1.624;2023-04-01T04:09:33;19.20;47.90
73121;DHT22;61307;49.628;-1.624;2023-04-01T04:12:00;19.20;47.90
73121;DHT22;61307;49.628;-1.624;2023-04-01T04:14:27;19.20;47.90
73121;DHT22;61307;49.628;-1.624;2023-04-01T04:16:54;19.10;47.80
73121;DHT22;61307;49.628;-1.624;2023-04-01T04:19:21;19.20;47.80
73121;DHT22;61307;49.628;-1.624;2023-04-01T04:21:48;19.10;47.80
73121;DHT22;61307;49.628;-1.624;2023-04-01T04:24:15;19.10;47.80
73121;DHT22;61307;49.628;-1.624;2023-04-01T04:26:44;19.10;47.70
73121;DHT22;61307;49.628;-1.624;2023-04-01T04:29:11;19.10;47.70
73121;DHT22;61307;49.628;-1.624;2023-04-01T04:31:38;19.10;47.70
73121;DHT22;61307;49.628;-1.624;2023-04-01T04:34:05;19.10;47.70
73121;DHT22;61307;49.628;-1.624;2023-04-01T04:36:32;19.10;47.70
73121;DHT22;61307;49.628;-1.624;2023-04-01T04:38:59;19.10;47.70
73121;DHT22;61307;49.628;-1.624;2023-04-01T04:41:28;19.10;47.70
73121;DHT22;61307;49.628;-1.624;2023-04-01T04:43:57;19.10;48.40
73121;DHT22;61307;49.628;-1.624;2023-04-01T04:46:24;19.10;47.80
73121;DHT22;61307;49.628;-1.624;2023-04-01T04:48:52;19.10;47.80
73121;DHT22;61307;49.628;-1.624;2023-04-01T04:51:19;19.10;47.80
73121;DHT22;61307;49.628;-1.624;2023-04-01T04:53:47;19.10;47.80
73121;DHT22;61307;49.628;-1.624;2023-04-01T04:56:17;19.10;47.90
73121;DHT22;61307;49.628;-1.624;2023-04-01T04:58:46;19.10;47.80
73121;DHT22;61307;49.628;-1.624;2023-04-01T05:01:15;19.20;47.90
73121;DHT22;61307;49.628;-1.624;2023-04-01T05:03:43;19.20;47.90
73121;DHT22;61307;49.628;-1.624;2023-04-01T05:06:12;19.20;47.90
73121;DHT22;61307;49.628;-1.624;2023-04-01T05:08:40;19.20;47.80
73121;DHT22;61307;49.628;-1.624;2023-04-01T05:11:11;19.30;47.90
73121;DHT22;61307;49.628;-1.624;2023-04-01T05:13:38;19.30;47.90
73121;DHT22;61307;49.628;-1.624;2023-04-01T05:16:08;19.30;47.90
73121;DHT22;61307;49.628;-1.624;2023-04-01T05:18:37;19.30;47.90
73121;DHT22;61307;49.628;-1.624;2023-04-01T05:21:04;19.30;47.90
73121;DHT22;61307;49.628;-1.624;2023-04-01T05:23:32;19.40;47.90
73121;DHT22;61307;49.628;-1.624;2023-04-01T05:26:02;19.30;47.80
73121;DHT22;61307;49.628;-1.624;2023-04-01T05:28:29;19.40;47.90
73121;DHT22;61307;49.628;-1.624;2023-04-01T05:30:58;19.40;47.80
73121;DHT22;61307;49.628;-1.624;2023-04-01T05:33:26;19.40;47.90
73121;DHT22;61307;49.628;-1.624;2023-04-01T05:35:55;19.40;47.80
73121;DHT22;61307;49.628;-1.624;2023-04-01T05:38:22;19.40;47.80
73121;DHT22;61307;49.628;-1.624;2023-04-01T05:40:50;19.50;47.80
73121;DHT22;61307;49.628;-1.624;2023-04-01T05:43:17;19.40;47.70
73121;DHT22;61307;49.628;-1.624;2023-04-01T05:45:44;19.50;47.90
73121;DHT22;61307;49.628;-1.624;2023-04-01T05:48:10;19.50;47.80
73121;DHT22;61307;49.628;-1.624;2023-04-01T05:50:40;19.50;47.80
73121;DHT22;61307;49.628;-1.624;2023-04-01T05:53:08;19.50;47.80
73121;DHT22;61307;49.628;-1.624;2023-04-01T05:55:36;19.50;47.80
73121;DHT22;61307;49.628;-1.624;2023-04-01T05:58:03;19.50;48.40
73121;DHT22;61307;49.628;-1.624;2023-04-01T06:00:30;19.60;47.80
73121;DHT22;61307;49.628;-1.624;2023-04-01T06:02:58;19.60;47.70
73121;DHT22;61307;49.628;-1.624;2023-04-01T06:05:28;19.60;47.70
73121;DHT22;61307;49.628;-1.624;2023-04-01T06:07:58;19.60;47.70
73121;DHT22;61307;49.628;-1.624;2023-04-01T06:10:38;19.60;47.80
73121;DHT22;61307;49.628;-1.624;2023-04-01T06:13:14;19.60;47.70
73121;DHT22;61307;49.628;-1.624;2023-04-01T06:15:48;19.60;47.70
73121;DHT22;61307;49.628;-1.624;2023-04-01T06:18:39;19.60;47.70
73121;DHT22;61307;49.628;-1.624;2023-04-01T06:24:05;19.60;47.60
73121;DHT22;61307;49.628;-1.624;2023-04-01T06:26:39;19.60;47.50
73121;DHT22;61307;49.628;-1.624;2023-04-01T06:29:33;19.60;47.60
73121;DHT22;61307;49.628;-1.624;2023-04-01T06:32:24;19.60;47.50
73121;DHT22;61307;49.628;-1.624;2023-04-01T06:35:11;19.70;47.60
73121;DHT22;61307;49.628;-1.624;2023-04-01T06:38:01;19.70;48.20
73121;DHT22;61307;49.628;-1.624;2023-04-01T06:41:01;19.70;47.60
73121;DHT22;61307;49.628;-1.624;2023-04-01T06:43:41;19.70;47.50
73121;DHT22;61307;49.628;-1.624;2023-04-01T06:46:18;19.70;47.50
73121;DHT22;61307;49.628;-1.624;2023-04-01T06:49:02;19.70;47.50
73121;DHT22;61307;49.628;-1.624;2023-04-01T06:51:41;19.70;47.40
73121;DHT22;61307;49.628;-1.624;2023-04-01T06:54:11;19.70;47.50
73121;DHT22;61307;49.628;-1.624;2023-04-01T06:56:41;19.70;47.40
73121;DHT22;61307;49.628;-1.624;2023-04-01T06:59:13;19.70;47.40
73121;DHT22;61307;49.628;-1.624;2023-04-01T07:01:45;19.70;47.30
73121;DHT22;61307;49.628;-1.624;2023-04-01T07:04:16;19.70;47.40
73121;DHT22;61307;49.628;-1.624;2023-04-01T07:06:48;19.80;47.40
73121;DHT22;61307;49.628;-1.624;2023-04-01T07:09:19;19.80;47.40
73121;DHT22;61307;49.628;-1.624;2023-04-01T07:11:47;19.80;47.30
73121;DHT22;61307;49.628;-1.624;2023-04-01T07:14:20;19.80;47.30
73121;DHT22;61307;49.628;-1.624;2023-04-01T07:16:50;19.80;47.30
73121;DHT22;61307;49.628;-1.624;2023-04-01T07:19:24;19.80;47.30
73121;DHT22;61307;49.628;-1.624;2023-04-01T07:21:56;19.80;47.20
73121;DHT22;61307;49.628;-1.624;2023-04-01T07:24:26;19.80;47.20
73121;DHT22;61307;49.628;-1.624;2023-04-01T07:26:55;19.80;47.20
73121;DHT22;61307;49.628;-1.624;2023-04-01T07:29:25;19.90;47.30
73121;DHT22;61307;49.628;-1.624;2023-04-01T07:32:16;19.90;47.30
73121;DHT22;61307;49.628;-1.624;2023-04-01T07:35:00;19.90;47.30
73121;DHT22;61307;49.628;-1.624;2023-04-01T07:37:34;19.90;47.30
73121;DHT22;61307;49.628;-1.624;2023-04-01T07:40:14;19.90;47.20
73121;DHT22;61307;49.628;-1.624;2023-04-01T07:42:55;19.90;47.10
73121;DHT22;61307;49.628;-1.624;2023-04-01T07:45:30;19.90;47.10
73121;DHT22;61307;49.628;-1.624;2023-04-01T07:48:08;19.90;47.10
73121;DHT22;61307;49.628;-1.624;2023-04-01T07:50:41;19.90;47.10
73121;DHT22;61307;49.628;-1.624;2023-04-01T07:53:19;19.90;47.10
73121;DHT22;61307;49.628;-1.624;2023-04-01T07:55:50;19.90;47.10
73121;DHT22;61307;49.628;-1.624;2023-04-01T07:58:25;19.90;47.10
73121;DHT22;61307;49.628;-1.624;2023-04-01T08:01:03;19.90;47.10
73121;DHT22;61307;49.628;-1.624;2023-04-01T08:03:43;20.00;47.20
73121;DHT22;61307;49.628;-1.624;2023-04-01T08:06:19;20.00;47.10
73121;DHT22;61307;49.628;-1.624;2023-04-01T08:08:56;20.00;47.10
73121;DHT22;61307;49.628;-1.624;2023-04-01T08:11:42;20.00;47.10
73121;DHT22;61307;49.628;-1.624;2023-04-01T08:14:21;20.00;47.00
73121;DHT22;61307;49.628;-1.624;2023-04-01T08:16:57;20.00;47.10
73121;DHT22;61307;49.628;-1.624;2023-04-01T08:19:43;20.00;47.10
73121;DHT22;61307;49.628;-1.624;2023-04-01T08:22:18;20.00;47.00
73121;DHT22;61307;49.628;-1.624;2023-04-01T08:24:48;20.00;47.00
73121;DHT22;61307;49.628;-1.624;2023-04-01T08:27:20;20.00;47.00
73121;DHT22;61307;49.628;-1.624;2023-04-01T08:29:52;20.00;47.00
73121;DHT22;61307;49.628;-1.624;2023-04-01T08:32:25;20.00;46.90
73121;DHT22;61307;49.628;-1.624;2023-04-01T08:35:02;20.00;46.90
73121;DHT22;61307;49.628;-1.624;2023-04-01T08:37:38;20.00;46.90
73121;DHT22;61307;49.628;-1.624;2023-04-01T08:40:25;20.00;46.90
73121;DHT22;61307;49.628;-1.624;2023-04-01T08:43:06;20.00;46.80
73121;DHT22;61307;49.628;-1.624;2023-04-01T08:45:53;20.00;46.80
73121;DHT22;61307;49.628;-1.624;2023-04-01T08:48:41;20.00;46.80
73121;DHT22;61307;49.628;-1.624;2023-04-01T08:51:22;20.00;46.70
73121;DHT22;61307;49.628;-1.624;2023-04-01T08:54:08;20.00;46.80
73121;DHT22;61307;49.628;-1.624;2023-04-01T08:56:42;20.10;46.80
73121;DHT22;61307;49.628;-1.624;2023-04-01T08:59:32;20.00;46.70
73121;DHT22;61307;49.628;-1.624;2023-04-01T09:08:12;20.10;46.80
73121;DHT22;61307;49.628;-1.624;2023-04-01T09:13:54;20.10;46.80
73121;DHT22;61307;49.628;-1.624;2023-04-01T09:16:36;20.10;46.80
73121;DHT22;61307;49.628;-1.624;2023-04-01T09:19:22;20.10;46.70
73121;DHT22;61307;49.628;-1.624;2023-04-01T09:22:13;20.10;46.70
73121;DHT22;61307;49.628;-1.624;2023-04-01T09:25:08;20.10;46.70
73121;DHT22;61307;49.628;-1.624;2023-04-01T09:27:44;20.10;46.70
73121;DHT22;61307;49.628;-1.624;2023-04-01T09:30:32;20.10;46.70
73121;DHT22;61307;49.628;-1.624;2023-04-01T09:36:03;20.10;46.60
73121;DHT22;61307;49.628;-1.624;2023-04-01T09:38:44;20.20;46.70
73121;DHT22;61307;49.628;-1.624;2023-04-01T09:41:25;20.10;46.50
73121;DHT22;61307;49.628;-1.624;2023-04-01T09:44:01;20.10;46.50
73121;DHT22;61307;49.628;-1.624;2023-04-01T09:46:39;20.10;46.40
73121;DHT22;61307;49.628;-1.624;2023-04-01T09:49:38;20.10;46.50
73121;DHT22;61307;49.628;-1.624;2023-04-01T09:52:18;20.10;46.40
73121;DHT22;61307;49.628;-1.624;2023-04-01T09:55:13;20.10;46.40
73121;DHT22;61307;49.628;-1.624;2023-04-01T09:58:05;20.10;46.40
73121;DHT22;61307;49.628;-1.624;2023-04-01T10:00:49;20.10;46.30
73121;DHT22;61307;49.628;-1.624;2023-04-01T10:03:59;20.10;46.40
73121;DHT22;61307;49.628;-1.624;2023-04-01T10:07:03;20.10;46.40
73121;DHT22;61307;49.628;-1.624;2023-04-01T10:09:58;20.10;46.40
73121;DHT22;61307;49.628;-1.624;2023-04-01T10:12:55;20.10;46.30
73121;DHT22;61307;49.628;-1.624;2023-04-01T10:25:18;20.10;46.30
73121;DHT22;61307;49.628;-1.624;2023-04-01T10:28:23;20.10;46.30
73121;DHT22;61307;49.628;-1.624;2023-04-01T10:34:10;20.20;46.40
73121;DHT22;61307;49.628;-1.624;2023-04-01T10:36:52;20.20;46.40
73121;DHT22;61307;49.628;-1.624;2023-04-01T10:43:04;20.10;46.30
73121;DHT22;61307;49.628;-1.624;2023-04-01T10:54:47;20.20;46.40
73121;DHT22;61307;49.628;-1.624;2023-04-01T10:57:40;20.10;46.30
73121;DHT22;61307;49.628;-1.624;2023-04-01T11:00:35;20.10;46.30
73121;DHT22;61307;49.628;-1.624;2023-04-01T11:03:42;20.20;46.40
73121;DHT22;61307;49.628;-1.624;2023-04-01T11:09:29;20.20;46.30
73121;DHT22;61307;49.628;-1.624;2023-04-01T11:12:29;20.10;46.30
73121;DHT22;61307;49.628;-1.624;2023-04-01T11:15:31;20.20;46.40
73121;DHT22;61307;49.628;-1.624;2023-04-01T11:18:57;20.20;46.30
73121;DHT22;61307;49.628;-1.624;2023-04-01T11:28:09;20.20;46.40
73121;DHT22;61307;49.628;-1.624;2023-04-01T11:30:53;20.20;46.30
73121;DHT22;61307;49.628;-1.624;2023-04-01T11:33:31;20.10;46.30
73121;DHT22;61307;49.628;-1.624;2023-04-01T11:36:14;20.20;46.40
73121;DHT22;61307;49.628;-1.624;2023-04-01T11:38:53;20.20;46.40
73121;DHT22;61307;49.628;-1.624;2023-04-01T11:41:31;20.10;46.30
73121;DHT22;61307;49.628;-1.624;2023-04-01T11:44:16;20.20;46.40
73121;DHT22;61307;49.628;-1.624;2023-04-01T11:47:20;20.20;46.40
73121;DHT22;61307;49.628;-1.624;2023-04-01T11:50:03;20.20;46.40
73121;DHT22;61307;49.628;-1.624;2023-04-01T11:52:53;20.20;46.30
73121;DHT22;61307;49.628;-1.624;2023-04-01T11:55:32;20.20;46.30
73121;DHT22;61307;49.628;-1.624;2023-04-01T11:58:21;20.20;46.40
73121;DHT22;61307;49.628;-1.624;2023-04-01T12:01:09;20.20;46.40
73121;DHT22;61307;49.628;-1.624;2023-04-01T12:04:26;20.20;46.30
73121;DHT22;61307;49.628;-1.624;2023-04-01T12:07:20;20.30;46.40
73121;DHT22;61307;49.628;-1.624;2023-04-01T12:09:56;20.30;46.40
73121;DHT22;61307;49.628;-1.624;2023-04-01T12:12:32;20.30;46.40
73121;DHT22;61307;49.628;-1.624;2023-04-01T12:15:17;20.30;46.40
73121;DHT22;61307;49.628;-1.624;2023-04-01T12:17:52;20.40;46.50
73121;DHT22;61307;49.628;-1.624;2023-04-01T12:20:30;20.40;46.50
73121;DHT22;61307;49.628;-1.624;2023-04-01T12:23:15;20.40;46.50
73121;DHT22;61307;49.628;-1.624;2023-04-01T12:28:52;20.40;46.50
73121;DHT22;61307;49.628;-1.624;2023-04-01T12:31:31;20.40;46.50
73121;DHT22;61307;49.628;-1.624;2023-04-01T12:34:25;20.40;46.50
73121;DHT22;61307;49.628;-1.624;2023-04-01T12:37:03;20.40;46.40
73121;DHT22;61307;49.628;-1.624;2023-04-01T12:40:01;20.40;46.40
73121;DHT22;61307;49.628;-1.624;2023-04-01T12:42:57;20.50;46.50
73121;DHT22;61307;49.628;-1.624;2023-04-01T12:45:30;20.50;46.40
73121;DHT22;61307;49.628;-1.624;2023-04-01T12:48:30;20.50;46.40
73121;DHT22;61307;49.628;-1.624;2023-04-01T12:58:06;20.50;46.40
73121;DHT22;61307;49.628;-1.624;2023-04-01T13:00:49;20.50;46.40
73121;DHT22;61307;49.628;-1.624;2023-04-01T13:03:42;20.50;46.50
73121;DHT22;61307;49.628;-1.624;2023-04-01T13:06:24;20.50;46.50
73121;DHT22;61307;49.628;-1.624;2023-04-01T13:09:05;20.50;46.50
73121;DHT22;61307;49.628;-1.624;2023-04-01T13:11:54;20.50;46.60
73121;DHT22;61307;49.628;-1.624;2023-04-01T13:17:33;20.60;46.70
73121;DHT22;61307;49.628;-1.624;2023-04-01T13:20:14;20.60;46.70
73121;DHT22;61307;49.628;-1.624;2023-04-01T13:22:56;20.60;46.70
73121;DHT22;61307;49.628;-1.624;2023-04-01T13:25:36;20.60;46.70
73121;DHT22;61307;49.628;-1.624;2023-04-01T13:28:15;20.60;46.70
73121;DHT22;61307;49.628;-1.624;2023-04-01T13:30:53;20.60;46.70
73121;DHT22;61307;49.628;-1.624;2023-04-01T13:33:27;20.60;46.70
73121;DHT22;61307;49.628;-1.624;2023-04-01T13:36:08;20.60;46.70
73121;DHT22;61307;49.628;-1.624;2023-04-01T13:39:20;20.60;46.70
73121;DHT22;61307;49.628;-1.624;2023-04-01T13:42:16;20.70;46.80
73121;DHT22;61307;49.628;-1.624;2023-04-01T13:44:49;20.70;47.40
73121;DHT22;61307;49.628;-1.624;2023-04-01T13:50:32;20.70;46.80
73121;DHT22;61307;49.628;-1.624;2023-04-01T13:56:19;20.80;47.00
73121;DHT22;61307;49.628;-1.624;2023-04-01T13:59:27;20.80;47.10
73121;DHT22;61307;49.628;-1.624;2023-04-01T14:02:16;20.80;47.00
73121;DHT22;61307;49.628;-1.624;2023-04-01T14:04:54;20.80;47.00
73121;DHT22;61307;49.628;-1.624;2023-04-01T14:07:46;20.80;47.00
73121;DHT22;61307;49.628;-1.624;2023-04-01T14:10:26;20.80;47.00
73121;DHT22;61307;49.628;-1.624;2023-04-01T14:12:59;20.80;46.90
73121;DHT22;61307;49.628;-1.624;2023-04-01T14:15:36;20.90;47.00
73121;DHT22;61307;49.628;-1.624;2023-04-01T14:18:23;20.90;47.00
73121;DHT22;61307;49.628;-1.624;2023-04-01T14:21:13;20.90;47.00
73121;DHT22;61307;49.628;-1.624;2023-04-01T14:27:09;20.90;47.00
73121;DHT22;61307;49.628;-1.624;2023-04-01T14:30:00;20.90;47.00
73121;DHT22;61307;49.628;-1.624;2023-04-01T14:32:39;20.90;47.00
73121;DHT22;61307;49.628;-1.624;2023-04-01T14:41:15;20.90;46.90
73121;DHT22;61307;49.628;-1.624;2023-04-01T14:44:05;20.90;46.90
73121;DHT22;61307;49.628;-1.624;2023-04-01T14:47:15;20.90;47.00
73121;DHT22;61307;49.628;-1.624;2023-04-01T14:49:49;20.90;47.00
73121;DHT22;61307;49.628;-1.624;2023-04-01T14:52:24;20.90;46.90
73121;DHT22;61307;49.628;-1.624;2023-04-01T14:54:54;20.90;47.00
73121;DHT22;61307;49.628;-1.624;2023-04-01T14:57:24;20.90;46.90
73121;DHT22;61307;49.628;-1.624;2023-04-01T14:59:59;20.90;46.90
73121;DHT22;61307;49.628;-1.624;2023-04-01T15:02:45;20.90;46.90
73121;DHT22;61307;49.628;-1.624;2023-04-01T15:05:25;20.90;46.90
73121;DHT22;61307;49.628;-1.624;2023-04-01T15:08:10;20.90;46.90
73121;DHT22;61307;49.628;-1.624;2023-04-01T15:11:11;20.90;46.90
73121;DHT22;61307;49.628;-1.624;2023-04-01T15:14:19;20.90;46.90
73121;DHT22;61307;49.628;-1.624;2023-04-01T15:16:55;20.90;46.80
73121;DHT22;61307;49.628;-1.624;2023-04-01T15:19:35;20.90;46.90
73121;DHT22;61307;49.628;-1.624;2023-04-01T15:22:37;20.90;46.80
73121;DHT22;61307;49.628;-1.624;2023-04-01T15:25:23;21.00;47.00
73121;DHT22;61307;49.628;-1.624;2023-04-01T15:28:00;20.90;46.80
73121;DHT22;61307;49.628;-1.624;2023-04-01T15:30:36;20.90;46.80
73121;DHT22;61307;49.628;-1.624;2023-04-01T15:33:24;20.90;46.70
73121;DHT22;61307;49.628;-1.624;2023-04-01T15:36:01;21.00;46.80
73121;DHT22;61307;49.628;-1.624;2023-04-01T15:38:36;21.00;46.80
73121;DHT22;61307;49.628;-1.624;2023-04-01T15:41:14;20.90;46.80
73121;DHT22;61307;49.628;-1.624;2023-04-01T15:43:48;20.90;46.70
73121;DHT22;61307;49.628;-1.624;2023-04-01T15:46:42;21.00;46.70
73121;DHT22;61307;49.628;-1.624;2023-04-01T15:49:22;20.90;46.70
73121;DHT22;61307;49.628;-1.624;2023-04-01T15:52:06;21.00;46.70
73121;DHT22;61307;49.628;-1.624;2023-04-01T15:55:00;20.90;46.70
73121;DHT22;61307;49.628;-1.624;2023-04-01T15:57:40;21.00;46.70
73121;DHT22;61307;49.628;-1.624;2023-04-01T16:00:33;20.90;46.60
73121;DHT22;61307;49.628;-1.624;2023-04-01T16:03:23;20.90;46.60
73121;DHT22;61307;49.628;-1.624;2023-04-01T16:06:15;20.90;46.50
73121;DHT22;61307;49.628;-1.624;2023-04-01T16:09:02;20.90;46.60
73121;DHT22;61307;49.628;-1.624;2023-04-01T16:11:40;20.90;46.60
73121;DHT22;61307;49.628;-1.624;2023-04-01T16:14:18;20.90;46.70
73121;DHT22;61307;49.628;-1.624;2023-04-01T16:16:58;20.90;46.70
73121;DHT22;61307;49.628;-1.624;2023-04-01T16:19:33;20.90;46.70
73121;DHT22;61307;49.628;-1.624;2023-04-01T16:22:08;20.80;46.70
73121;DHT22;61307;49.628;-1.624;2023-04-01T16:24:43;20.90;46.80
73121;DHT22;61307;49.628;-1.624;2023-04-01T16:27:15;20.80;46.70
73121;DHT22;61307;49.628;-1.624;2023-04-01T16:29:47;20.80;46.70
73121;DHT22;61307;49.628;-1.624;2023-04-01T16:32:31;20.80;46.70
73121;DHT22;61307;49.628;-1.624;2023-04-01T16:35:23;20.80;46.70
73121;DHT22;61307;49.628;-1.624;2023-04-01T16:37:56;20.80;46.70
73121;DHT22;61307;49.628;-1.624;2023-04-01T16:40:37;20.80;46.70
73121;DHT22;61307;49.628;-1.624;2023-04-01T16:43:13;20.70;46.60
73121;DHT22;61307;49.628;-1.624;2023-04-01T16:45:45;20.70;46.70
73121;DHT22;61307;49.628;-1.624;2023-04-01T16:48:22;20.80;46.70
73121;DHT22;61307;49.628;-1.624;2023-04-01T16:50:59;20.70;46.60
73121;DHT22;61307;49.628;-1.624;2023-04-01T16:53:36;20.70;46.60
73121;DHT22;61307;49.628;-1.624;2023-04-01T16:56:10;20.70;46.60
73121;DHT22;61307;49.628;-1.624;2023-04-01T16:58:42;20.70;46.70
73121;DHT22;61307;49.628;-1.624;2023-04-01T17:01:13;20.70;46.60
73121;DHT22;61307;49.628;-1.624;2023-04-01T17:03:46;20.70;46.70
73121;DHT22;61307;49.628;-1.624;2023-04-01T17:06:25;20.70;46.70
73121;DHT22;61307;49.628;-1.624;2023-04-01T17:09:09;20.70;46.70
73121;DHT22;61307;49.628;-1.624;2023-04-01T17:11:46;20.70;46.70
73121;DHT22;61307;49.628;-1.624;2023-04-01T17:14:22;20.70;46.70
73121;DHT22;61307;49.628;-1.624;2023-04-01T17:17:06;20.70;46.70
73121;DHT22;61307;49.628;-1.624;2023-04-01T17:23:01;20.70;46.70
73121;DHT22;61307;49.628;-1.624;2023-04-01T17:25:39;20.70;46.70
73121;DHT22;61307;49.628;-1.624;2023-04-01T17:28:19;20.70;46.70
73121;DHT22;61307;49.628;-1.624;2023-04-01T17:30:56;20.70;46.70
73121;DHT22;61307;49.628;-1.624;2023-04-01T17:33:53;20.70;46.70
73121;DHT22;61307;49.628;-1.624;2023-04-01T17:36:36;20.70;46.70
73121;DHT22;61307;49.628;-1.624;2023-04-01T17:39:29;20.60;46.70